Time;durP1;ratioP1;P1;durP2;ratioP2;P2;SDS_P1;SDS_P2;PMS_P1;PMS_P2;Temp;Humidity;BMP_temperature;BMP_pressure;BME280_temperature;BME280_humidity;BME280_pressure;Samples;Min_cycle;Max_cycle;Signal;HPM_P1;HPM_P2
2022/04/18 00:00:35;;;;;;;3.08;2.15;;;;;;;17.10;38.48;93665.59;5032480;28;20556;-88
2022/04/18 00:03:03;;;;;;;2.67;2.20;;;;;;;17.10;38.34;93671.06;5017150;28;20033;-88
2022/04/18 00:05:30;;;;;;;3.25;2.13;;;;;;;17.08;38.66;93660.63;5034004;28;20059;-88
2022/04/18 00:07:55;;;;;;;4.03;2.53;;;;;;;17.08;38.20;93660.63;5016457;28;20567;-88
2022/04/18 00:10:21;;;;;;;2.83;2.30;;;;;;;17.10;38.49;93665.59;5015837;28;20234;-87
2022/04/18 00:12:46;;;;;;;3.35;2.25;;;;;;;17.10;38.19;93658.13;5051625;28;20032;-87
2022/04/18 00:15:12;;;;;;;2.55;2.05;;;;;;;17.09;38.57;93653.19;5016516;28;20124;-87
2022/04/18 00:17:37;;;;;;;2.38;2.17;;;;;;;17.09;38.61;93651.19;5012288;28;20072;-87
2022/04/18 00:20:03;;;;;;;3.50;2.30;;;;;;;17.06;38.62;93654.91;4998934;28;20063;-87
2022/04/18 00:22:28;;;;;;;2.53;2.00;;;;;;;17.06;38.43;93649.44;5016820;28;20052;-87
2022/04/18 00:24:54;;;;;;;2.45;2.10;;;;;;;17.07;38.37;93634.56;5000510;28;20033;-87
2022/04/18 00:27:19;;;;;;;2.60;2.03;;;;;;;17.06;38.63;93641.25;5016208;28;20526;-88
2022/04/18 00:29:47;;;;;;;2.50;2.30;;;;;;;17.07;38.41;93642.00;5016874;28;20025;-87
2022/04/18 00:32:13;;;;;;;2.33;2.10;;;;;;;17.06;38.47;93635.78;4999233;28;20029;-87
2022/04/18 00:34:38;;;;;;;2.10;1.83;;;;;;;17.05;38.43;93631.56;5033563;28;20029;-87
2022/04/18 00:37:04;;;;;;;2.05;1.80;;;;;;;17.05;38.41;93628.09;5032387;28;20033;-87
2022/04/18 00:39:29;;;;;;;2.97;2.25;;;;;;;17.06;38.32;93624.88;4999893;28;20455;-88
2022/04/18 00:41:55;;;;;;;3.63;2.63;;;;;;;17.06;38.39;93626.84;4996912;28;20034;-88
2022/04/18 00:44:20;;;;;;;2.90;2.03;;;;;;;17.05;38.21;93634.31;4996526;28;20054;-87
2022/04/18 00:46:46;;;;;;;2.30;1.83;;;;;;;17.05;38.37;93636.28;5013065;28;20026;-88
2022/04/18 00:49:11;;;;;;;2.67;2.00;;;;;;;17.05;38.64;93628.09;4998000;28;20037;-88
2022/04/18 00:51:36;;;;;;;2.50;2.17;;;;;;;17.05;38.46;93622.63;5015812;28;20396;-87
2022/04/18 00:54:02;;;;;;;2.35;1.90;;;;;;;17.05;38.59;93612.47;5015897;28;20411;-88
2022/04/18 00:56:27;;;;;;;4.13;2.20;;;;;;;17.02;38.39;93607.97;5015554;28;20033;-88
2022/04/18 00:58:53;;;;;;;3.00;2.15;;;;;;;17.06;38.13;93613.19;5015803;28;20430;-87
2022/04/18 01:01:19;;;;;;;3.25;2.15;;;;;;;17.03;38.52;93620.41;4999110;28;20037;-87
2022/04/18 01:03:44;;;;;;;2.75;2.22;;;;;;;17.03;38.13;93612.22;5016069;28;20040;-87
2022/04/18 01:06:10;;;;;;;2.83;2.00;;;;;;;17.02;38.40;93610.72;5021204;28;20045;-87
2022/04/18 01:08:35;;;;;;;2.53;1.75;;;;;;;17.03;38.31;93601.28;5028345;28;20056;-88
2022/04/18 01:11:01;;;;;;;2.90;2.22;;;;;;;17.01;38.49;93592.09;4974285;28;20037;-87
2022/04/18 01:13:29;;;;;;;2.30;1.95;;;;;;;17.02;38.71;93588.13;4975380;28;20634;-87
2022/04/18 01:15:55;;;;;;;3.03;2.25;;;;;;;17.00;38.21;93588.63;4959831;28;20401;-88
2022/04/18 01:18:21;;;;;;;2.97;2.10;;;;;;;17.00;38.25;93580.44;4989696;28;20409;-87
2022/04/18 01:20:46;;;;;;;3.03;2.08;;;;;;;17.00;38.60;93582.41;4994003;28;20049;-88
2022/04/18 01:23:12;;;;;;;2.33;2.00;;;;;;;17.00;38.44;93583.16;4993919;28;20234;-86
2022/04/18 01:31:04;;;;;;;3.35;2.22;;;;;;;16.99;38.22;93576.19;5013614;28;20600;-87
2022/04/18 01:33:30;;;;;;;2.45;2.00;;;;;;;17.01;38.52;93581.16;5009665;28;20053;-88
2022/04/18 01:35:55;;;;;;;2.60;2.35;;;;;;;16.98;38.66;93574.72;5011298;28;20073;-88
2022/04/18 01:38:21;;;;;;;2.40;1.85;;;;;;;16.99;38.26;93568.00;5009429;28;21852;-88
2022/04/18 01:40:46;;;;;;;2.53;1.88;;;;;;;16.98;38.53;93563.78;4994008;28;20034;-87
2022/04/18 01:43:12;;;;;;;3.45;2.05;;;;;;;16.97;38.56;93567.75;5011287;28;20052;-88
2022/04/18 01:45:37;;;;;;;2.92;1.90;;;;;;;16.99;38.37;93567.25;5048305;28;20083;-87
2022/04/18 01:48:03;;;;;;;3.45;1.95;;;;;;;16.97;38.63;93567.75;5046267;28;20040;-87
2022/04/18 01:50:29;;;;;;;3.03;2.30;;;;;;;16.96;38.32;93569.00;5031657;28;20037;-87
2022/04/18 01:52:54;;;;;;;2.70;1.98;;;;;;;16.99;38.19;93559.81;5047948;28;20048;-87
2022/04/18 01:55:19;;;;;;;2.28;1.98;;;;;;;16.99;38.35;93564.53;5030938;28;20056;-87
2022/04/18 01:57:45;;;;;;;2.63;2.22;;;;;;;16.97;38.43;93558.81;5030854;28;20467;-88
2022/04/18 02:00:10;;;;;;;2.22;1.88;;;;;;;16.97;38.53;93550.63;5014123;28;20036;-87
2022/04/18 02:02:36;;;;;;;2.53;2.10;;;;;;;16.96;38.43;93549.88;5014620;28;20044;-87
2022/04/18 02:05:01;;;;;;;1.98;1.73;;;;;;;16.97;38.43;93550.63;5031450;28;20037;-88
2022/04/18 02:07:28;;;;;;;2.42;1.95;;;;;;;16.96;38.13;93547.16;5014112;28;20384;-88
2022/04/18 02:09:54;;;;;;;2.30;1.92;;;;;;;16.96;38.17;93543.69;5014134;28;20043;-88
2022/04/18 02:12:20;;;;;;;2.83;2.13;;;;;;;16.96;38.34;93538.22;5011625;28;20045;-88
2022/04/18 02:14:45;;;;;;;2.30;2.00;;;;;;;16.97;38.03;93543.19;5014393;28;20059;-87
2022/04/18 02:17:10;;;;;;;2.15;1.85;;;;;;;16.95;38.20;93531.25;5013907;28;20033;-87
2022/04/18 02:19:36;;;;;;;2.47;2.00;;;;;;;16.96;38.03;93530.03;5010196;28;20656;-87
2022/04/18 02:22:01;;;;;;;1.95;1.60;;;;;;;16.95;38.42;93540.19;4996210;28;20033;-87
2022/04/18 02:24:27;;;;;;;2.95;1.90;;;;;;;16.95;38.26;93534.00;4993560;28;20037;-87
2022/04/18 02:26:52;;;;;;;2.28;1.77;;;;;;;16.95;38.46;93525.81;5011340;28;20087;-87
2022/04/18 02:29:18;;;;;;;3.22;2.10;;;;;;;16.94;38.25;93527.03;4978126;28;20684;-87
2022/04/18 02:34:27;;;;;;;2.00;1.75;;;;;;;16.93;38.37;93525.56;4999413;28;20045;-88
2022/04/18 02:36:53;;;;;;;1.92;1.50;;;;;;;16.92;38.61;93524.81;5011266;28;20404;-87
2022/04/18 02:39:18;;;;;;;2.08;1.85;;;;;;;16.94;38.53;93524.31;5010310;28;20029;-88
2022/04/18 02:41:43;;;;;;;2.60;1.80;;;;;;;16.92;38.08;93522.09;5019959;28;20084;-88
2022/04/18 02:44:09;;;;;;;2.30;2.10;;;;;;;16.94;38.40;93508.69;5013719;28;20049;-87
2022/04/18 02:46:34;;;;;;;2.33;1.95;;;;;;;16.92;38.03;93522.09;4993839;28;20060;-87
2022/04/18 02:48:59;;;;;;;2.22;1.92;;;;;;;16.91;38.15;93520.59;4994340;28;20491;-87
2022/04/18 02:51:27;;;;;;;2.30;1.73;;;;;;;16.92;38.35;93513.88;5009817;28;20041;-88
2022/04/18 02:53:55;;;;;;;2.22;1.92;;;;;;;16.91;38.26;93508.91;5011185;28;20057;-88
2022/04/18 02:56:21;;;;;;;2.28;1.90;;;;;;;16.92;38.30;93508.44;4994069;28;20502;-88
2022/04/18 02:58:47;;;;;;;1.70;1.60;;;;;;;16.91;38.32;93509.66;4996602;28;20037;-88
2022/04/18 03:01:12;;;;;;;2.00;1.80;;;;;;;16.91;38.17;93506.19;4977373;28;20025;-87
2022/04/18 03:03:37;;;;;;;2.35;1.77;;;;;;;16.91;38.15;93492.53;5018484;28;20040;-88
2022/04/18 03:06:04;;;;;;;2.60;1.80;;;;;;;16.91;38.17;93501.47;5017830;28;20068;-87
2022/04/18 03:08:29;;;;;;;2.50;2.00;;;;;;;16.91;37.95;93501.47;5030593;28;20375;-87
2022/04/18 03:11:05;;;;;;;2.00;1.80;;;;;;;16.90;38.10;93497.25;5033549;28;20036;-87
2022/04/18 03:13:34;;;;;;;2.03;1.63;;;;;;;16.89;37.96;93498.50;5011477;28;20050;-87
2022/04/18 03:16:00;;;;;;;2.13;1.92;;;;;;;16.89;38.24;93493.03;5043362;28;20538;-88
2022/04/18 03:18:26;;;;;;;2.45;1.70;;;;;;;16.88;38.06;93488.84;5009650;28;20041;-88
2022/04/18 03:20:51;;;;;;;2.13;1.92;;;;;;;16.89;38.37;93484.84;5030218;28;20056;-88
2022/04/18 03:23:17;;;;;;;2.40;1.60;;;;;;;16.90;38.42;93477.41;5046125;28;20442;-87
2022/04/18 03:25:42;;;;;;;2.33;1.70;;;;;;;16.87;38.22;93470.22;5047012;28;20029;-87
2022/04/18 03:28:09;;;;;;;1.92;1.73;;;;;;;16.87;38.31;93479.16;5013160;28;20063;-87
2022/04/18 03:30:34;;;;;;;2.13;1.70;;;;;;;16.88;37.96;93477.94;5030537;28;20098;-87
2022/04/18 03:32:59;;;;;;;3.50;1.77;;;;;;;16.87;37.97;93481.91;5010950;28;20034;-88
2022/04/18 03:35:25;;;;;;;2.30;1.70;;;;;;;16.88;38.44;93477.94;5048683;28;20037;-88
2022/04/18 03:40:35;;;;;;;2.00;1.75;;;;;;;16.89;37.96;93467.75;5031834;28;20060;-87
2022/04/18 03:43:01;;;;;;;2.05;1.85;;;;;;;16.88;37.94;93472.47;5034264;28;20059;-88
2022/04/18 03:45:26;;;;;;;2.25;2.03;;;;;;;16.87;38.25;93467.50;5015920;28;20033;-88
2022/04/18 03:47:51;;;;;;;2.13;1.83;;;;;;;16.87;38.21;93459.31;5034050;28;20036;-87
2022/04/18 03:50:17;;;;;;;2.20;1.83;;;;;;;16.86;38.25;93458.56;5033625;28;20499;-88
2022/04/18 03:52:42;;;;;;;3.17;1.80;;;;;;;16.87;38.17;93467.50;5034262;28;20045;-88
2022/04/18 03:55:08;;;;;;;2.80;1.80;;;;;;;16.86;38.19;93466.75;5032942;28;20221;-87
2022/04/18 03:57:33;;;;;;;1.92;1.58;;;;;;;16.85;38.12;93464.53;5016208;28;20036;-87
2022/04/18 03:59:59;;;;;;;2.72;1.88;;;;;;;16.86;37.81;93463.28;5033718;28;20044;-88
2022/04/18 04:02:24;;;;;;;2.75;1.98;;;;;;;16.84;38.12;93455.59;5032316;28;20067;-87
2022/04/18 04:04:49;;;;;;;2.60;1.75;;;;;;;16.87;37.74;93459.31;5017053;28;20037;-88
2022/04/18 04:07:15;;;;;;;2.47;1.90;;;;;;;16.84;37.90;93450.13;5016689;28;20495;-88
2022/04/18 04:09:40;;;;;;;1.95;1.75;;;;;;;16.85;38.38;93450.88;5016665;28;20052;-87
2022/04/18 04:12:06;;;;;;;2.33;1.73;;;;;;;16.85;38.18;93456.34;5049640;28;20044;-88
2022/04/18 04:14:32;;;;;;;2.92;1.95;;;;;;;16.84;38.25;93450.13;5016777;28;20537;-87
2022/04/18 04:16:57;;;;;;;2.20;1.80;;;;;;;16.85;38.06;93446.16;5017053;28;20051;-87
2022/04/18 04:19:23;;;;;;;2.95;1.60;;;;;;;16.84;37.93;93450.13;5033216;28;20553;-88
2022/04/18 04:21:48;;;;;;;2.17;1.77;;;;;;;16.84;38.19;93447.41;5021638;28;20025;-88
2022/04/18 04:24:13;;;;;;;2.15;1.75;;;;;;;16.85;37.89;93450.88;5012585;28;20412;-88
2022/04/18 04:26:39;;;;;;;2.25;2.03;;;;;;;16.84;37.98;93452.84;5030209;28;20041;-88
2022/04/18 04:29:04;;;;;;;3.00;2.20;;;;;;;16.85;37.75;93451.63;5029493;28;20499;-88
2022/04/18 04:31:30;;;;;;;2.05;1.85;;;;;;;16.85;37.79;93448.16;5024271;28;20081;-87
2022/04/18 04:33:55;;;;;;;2.17;1.90;;;;;;;16.85;38.05;93440.69;5028367;28;20033;-88
2022/04/18 04:36:20;;;;;;;2.78;1.60;;;;;;;16.87;37.99;93449.13;5029134;28;20091;-88
2022/04/18 04:38:46;;;;;;;2.85;2.00;;;;;;;16.88;38.12;93442.44;4996582;28;20037;-88
2022/04/18 04:41:11;;;;;;;1.75;1.52;;;;;;;16.89;37.84;93449.34;5017442;28;20037;-88
2022/04/18 04:43:38;;;;;;;2.30;1.90;;;;;;;16.89;37.73;93448.63;5009464;28;20498;-87
2022/04/18 04:46:04;;;;;;;2.63;1.88;;;;;;;16.89;37.75;93452.09;5024840;28;20045;-88
2022/04/18 04:48:29;;;;;;;2.50;1.90;;;;;;;16.89;37.78;93440.44;4996943;28;20037;-88
2022/04/18 04:50:55;;;;;;;2.25;1.83;;;;;;;16.89;38.03;93445.91;5013464;28;20037;-88
2022/04/18 04:53:20;;;;;;;3.70;2.55;;;;;;;16.88;37.87;93447.16;4995801;28;20062;-87
2022/04/18 04:55:45;;;;;;;2.75;2.25;;;;;;;16.91;37.80;93451.59;5012901;28;20040;-87
2022/04/18 04:58:11;;;;;;;2.05;1.70;;;;;;;16.86;37.80;93450.38;5012426;28;20072;-87
2022/04/18 05:00:37;;;;;;;2.63;2.05;;;;;;;16.88;37.81;93441.69;5016004;28;20037;-87
2022/04/18 05:03:03;;;;;;;2.38;1.88;;;;;;;16.90;38.03;93452.81;5015091;28;20079;-88
2022/04/18 05:05:28;;;;;;;2.55;1.83;;;;;;;16.93;37.56;93446.38;5015383;28;20053;-88
2022/04/18 05:07:55;;;;;;;2.65;2.05;;;;;;;16.94;37.58;93447.84;5049884;28;20048;-87
2022/04/18 05:10:21;;;;;;;2.35;1.95;;;;;;;16.93;37.75;93451.81;5014194;28;20041;-87
2022/04/18 05:12:46;;;;;;;3.33;2.30;;;;;;;16.93;37.83;93441.66;5023646;28;20485;-87
2022/04/18 05:15:12;;;;;;;2.15;1.85;;;;;;;16.95;37.68;93450.09;5005416;28;20045;-86
2022/04/18 05:17:37;;;;;;;3.53;2.17;;;;;;;16.96;37.58;93445.38;5004319;28;20044;-86
2022/04/18 05:20:04;;;;;;;2.08;1.70;;;;;;;16.97;37.64;93439.41;4988807;28;20091;-86
2022/04/18 05:22:31;;;;;;;2.38;1.85;;;;;;;16.96;37.54;93448.84;5003385;28;20461;-86
2022/04/18 05:24:57;;;;;;;2.05;1.50;;;;;;;17.02;37.39;93443.38;5020929;28;20037;-87
2022/04/18 05:27:22;;;;;;;2.08;1.88;;;;;;;16.98;37.67;93438.16;4986432;28;20053;-87
2022/04/18 05:29:47;;;;;;;1.77;1.50;;;;;;;16.99;37.73;93447.84;5020259;28;20034;-87
2022/04/18 05:32:13;;;;;;;3.55;1.90;;;;;;;17.00;37.72;93449.34;4992861;28;20064;-87
2022/04/18 05:34:38;;;;;;;2.00;1.75;;;;;;;17.03;37.81;93451.06;5006843;28;20032;-87
2022/04/18 05:37:04;;;;;;;2.30;1.75;;;;;;;17.03;37.34;93434.69;5003707;28;20399;-86
2022/04/18 05:39:30;;;;;;;2.05;1.65;;;;;;;17.02;37.67;93443.38;5030101;28;20677;-87
2022/04/18 05:41:56;;;;;;;1.40;1.30;;;;;;;17.01;37.29;93437.19;5015427;28;20037;-87
2022/04/18 05:44:22;;;;;;;2.03;1.60;;;;;;;17.04;37.40;93447.09;5031662;28;20048;-86
2022/04/18 05:46:47;;;;;;;1.83;1.67;;;;;;;17.02;37.80;93443.38;5013260;28;20033;-86
2022/04/18 05:49:13;;;;;;;3.70;1.80;;;;;;;17.04;37.77;93443.63;5013285;28;20033;-87
2022/04/18 05:51:38;;;;;;;3.67;1.50;;;;;;;17.05;37.69;93442.38;5014755;28;20614;-86
2022/04/18 05:54:03;;;;;;;2.33;1.63;;;;;;;17.06;37.77;93443.88;5014893;28;20087;-87
2022/04/18 05:56:30;;;;;;;1.90;1.67;;;;;;;17.06;37.63;93444.63;5014472;28;20139;-87
2022/04/18 05:58:56;;;;;;;1.88;1.48;;;;;;;17.09;37.24;93446.34;5048576;28;20033;-87
2022/04/18 06:01:21;;;;;;;2.05;1.50;;;;;;;17.10;37.11;93439.63;5013101;28;20041;-87
2022/04/18 06:03:47;;;;;;;1.92;1.55;;;;;;;17.12;37.54;93439.13;5014763;28;20514;-86
2022/04/18 06:06:13;;;;;;;1.63;1.30;;;;;;;17.10;37.27;93433.44;5019523;28;20170;-87
2022/04/18 06:08:38;;;;;;;2.72;1.88;;;;;;;17.12;37.52;93439.84;5015039;28;20119;-87
2022/04/18 06:11:05;;;;;;;2.25;1.52;;;;;;;17.15;37.44;93438.13;5021366;28;20083;-87
2022/04/18 06:13:30;;;;;;;1.70;1.50;;;;;;;17.15;37.55;93440.84;5011114;28;20042;-86
2022/04/18 06:15:55;;;;;;;1.83;1.45;;;;;;;17.17;37.22;93427.44;5027840;28;20235;-87
2022/04/18 06:18:21;;;;;;;3.80;1.50;;;;;;;17.18;37.31;93439.84;5010746;28;20041;-87
2022/04/18 06:20:46;;;;;;;1.85;1.45;;;;;;;17.22;37.31;93437.59;5015631;28;20029;-86
2022/04/18 06:23:14;;;;;;;2.20;1.85;;;;;;;17.19;37.16;93433.13;5046868;28;20021;-86
2022/04/18 06:25:39;;;;;;;1.67;1.35;;;;;;;17.22;37.44;93440.34;5030807;28;20591;-87
2022/04/18 06:28:05;;;;;;;1.73;1.27;;;;;;;17.21;37.69;93432.63;5046774;28;20025;-87
2022/04/18 06:30:30;;;;;;;1.52;1.15;;;;;;;17.22;37.42;93436.84;5046771;28;20038;-86
2022/04/18 06:32:56;;;;;;;1.42;1.33;;;;;;;17.23;37.50;93430.91;5047866;28;20028;-87
2022/04/18 06:35:22;;;;;;;2.17;1.63;;;;;;;17.24;37.81;93431.63;5036166;28;20113;-86
2022/04/18 06:37:47;;;;;;;3.65;1.48;;;;;;;17.23;36.89;93439.09;5010578;28;20446;-87
2022/04/18 06:40:13;;;;;;;2.17;1.30;;;;;;;17.22;37.38;93434.88;5033111;28;20391;-86
2022/04/18 06:42:38;;;;;;;1.55;1.30;;;;;;;17.23;37.23;93438.34;5030783;28;20037;-87
2022/04/18 06:45:04;;;;;;;2.35;1.52;;;;;;;17.21;37.77;93441.59;5047132;28;20032;-86
2022/04/18 06:47:29;;;;;;;2.58;1.48;;;;;;;17.20;37.60;93436.63;5029275;28;20448;-87
2022/04/18 06:49:55;;;;;;;2.45;1.58;;;;;;;17.21;37.17;93433.38;5030601;28;20041;-86
2022/04/18 06:52:22;;;;;;;2.20;1.58;;;;;;;17.21;37.42;93427.91;5030514;28;20037;-87
2022/04/18 06:54:47;;;;;;;2.13;1.60;;;;;;;17.19;37.06;93433.13;5030730;28;20375;-87
2022/04/18 06:57:13;;;;;;;1.45;1.35;;;;;;;17.18;37.02;93431.66;5013138;28;20037;-87
2022/04/18 06:59:38;;;;;;;3.22;1.80;;;;;;;17.21;37.06;93443.56;5026611;28;20100;-86
2022/04/18 07:02:04;;;;;;;2.15;1.80;;;;;;;17.20;37.53;93439.34;5043733;28;20086;-87
2022/04/18 07:04:29;;;;;;;2.20;1.50;;;;;;;17.18;37.32;93445.31;5030606;28;20025;-86
2022/04/18 07:06:55;;;;;;;1.70;1.55;;;;;;;17.21;37.10;93435.38;5029882;28;20041;-87
2022/04/18 07:09:20;;;;;;;1.80;1.40;;;;;;;17.18;37.28;93431.66;5029335;28;20052;-87
2022/04/18 07:11:46;;;;;;;3.58;2.13;;;;;;;17.18;37.46;93430.91;5029577;28;20079;-87
2022/04/18 07:14:13;;;;;;;1.85;1.42;;;;;;;17.16;37.34;93428.69;5026657;28;20095;-87
2022/04/18 07:16:39;;;;;;;2.10;1.50;;;;;;;17.21;37.24;93432.63;5008991;28;20095;-87
2022/04/18 07:19:05;;;;;;;2.20;1.42;;;;;;;17.17;37.59;93424.69;5026061;28;20041;-86
2022/04/18 07:21:30;;;;;;;1.85;1.50;;;;;;;17.18;37.18;93431.66;5033292;28;20136;-87
2022/04/18 07:23:56;;;;;;;1.73;1.60;;;;;;;17.16;37.14;93431.41;5026614;28;20026;-87
2022/04/18 07:26:21;;;;;;;1.67;1.55;;;;;;;17.17;37.26;93441.09;5026089;28;20435;-86
2022/04/18 07:28:47;;;;;;;1.48;1.20;;;;;;;17.21;37.26;93435.38;5009696;28;20503;-87
2022/04/18 07:31:12;;;;;;;2.38;1.40;;;;;;;17.17;37.20;93432.16;4999688;28;20042;-87
2022/04/18 07:33:38;;;;;;;1.83;1.60;;;;;;;17.17;37.37;93435.63;5041083;28;20033;-87
2022/04/18 07:36:03;;;;;;;1.80;1.42;;;;;;;17.19;37.32;93437.84;5028979;28;20025;-87
2022/04/18 07:41:14;;;;;;;1.55;1.45;;;;;;;17.18;37.19;93434.38;5032317;28;20040;-87
2022/04/18 07:43:40;;;;;;;1.70;1.50;;;;;;;17.20;37.21;93431.16;4994167;28;20041;-87
2022/04/18 07:46:05;;;;;;;1.77;1.38;;;;;;;17.18;37.63;93434.38;5009609;28;20033;-87
2022/04/18 07:48:31;;;;;;;1.30;1.20;;;;;;;17.17;37.65;93410.31;5025357;28;20041;-86
2022/04/18 07:53:41;;;;;;;1.55;1.30;;;;;;;17.16;37.52;93433.41;5027593;28;20063;-86
2022/04/18 07:56:06;;;;;;;3.22;1.30;;;;;;;17.17;37.17;93426.69;5000486;28;20508;-86
2022/04/18 07:58:31;;;;;;;1.42;1.33;;;;;;;17.16;37.52;93431.41;5036105;28;20037;-86
2022/04/18 08:00:57;;;;;;;1.98;1.77;;;;;;;17.15;37.57;93435.38;5039273;28;20095;-86
2022/04/18 08:03:22;;;;;;;1.83;1.48;;;;;;;17.17;37.53;93435.63;5044462;28;20522;-87
2022/04/18 08:05:48;;;;;;;1.80;1.38;;;;;;;17.17;37.37;93443.06;5025161;28;20045;-87
2022/04/18 08:08:13;;;;;;;1.45;1.30;;;;;;;17.14;37.33;93437.38;5044166;28;20454;-87
2022/04/18 08:10:38;;;;;;;2.13;1.17;;;;;;;17.15;37.13;93429.91;5029929;28;20044;-86
2022/04/18 08:13:04;;;;;;;1.42;1.25;;;;;;;17.16;37.25;93428.69;4995845;28;20052;-87
2022/04/18 08:15:30;;;;;;;2.08;1.40;;;;;;;17.15;37.02;93424.47;5013106;28;20501;-87
2022/04/18 08:17:55;;;;;;;1.65;1.20;;;;;;;17.16;37.13;93414.28;5029439;28;20116;-87
2022/04/18 08:20:21;;;;;;;1.45;1.10;;;;;;;17.15;37.18;93421.72;5029582;28;20045;-87
2022/04/18 08:22:46;;;;;;;1.67;1.17;;;;;;;17.15;37.05;93419.00;5033566;28;20037;-86
2022/04/18 08:25:13;;;;;;;1.63;1.15;;;;;;;17.18;37.31;93425.44;5030593;28;20035;-85
2022/04/18 08:27:38;;;;;;;1.13;0.90;;;;;;;17.15;37.32;93416.25;5031776;28;20040;-86
2022/04/18 08:30:04;;;;;;;1.95;1.60;;;;;;;17.17;37.01;93416.50;5013724;28;20030;-86
2022/04/18 08:32:36;;;;;;;1.92;1.20;;;;;;;17.16;37.05;93425.94;5029932;28;20068;-86
2022/04/18 08:35:04;;;;;;;1.60;1.30;;;;;;;17.16;37.61;93420.47;5023555;28;20041;-87
2022/04/18 08:37:30;;;;;;;1.77;1.17;;;;;;;17.17;37.20;93427.44;5031256;28;20124;-87
2022/04/18 08:39:55;;;;;;;1.50;1.40;;;;;;;17.19;36.98;93424.19;5048359;28;20464;-88
2022/04/18 08:42:21;;;;;;;1.50;1.40;;;;;;;17.17;37.57;93432.91;5050306;28;20033;-88
2022/04/18 08:44:49;;;;;;;2.30;1.30;;;;;;;17.17;37.25;93429.41;5029556;28;20067;-88
2022/04/18 08:52:43;;;;;;;2.05;1.30;;;;;;;17.15;37.33;93429.91;5028970;28;20351;-88
2022/04/18 08:52:44;;;;;;;1.85;1.20;;;;;;;17.17;37.26;93435.63;5038954;28;20048;-88
2022/04/18 08:55:10;;;;;;;1.52;1.42;;;;;;;17.21;37.06;93438.09;5012751;28;20064;-87
2022/04/18 08:57:36;;;;;;;1.60;1.30;;;;;;;17.15;37.15;93421.72;5015002;28;20037;-88
2022/04/18 09:00:02;;;;;;;2.35;1.55;;;;;;;17.16;37.22;93425.94;4999441;28;20148;-88
2022/04/18 09:02:27;;;;;;;1.45;1.25;;;;;;;17.16;37.27;93420.47;4978179;28;20071;-87
2022/04/18 09:04:53;;;;;;;1.40;1.17;;;;;;;17.16;37.16;93417.00;4978212;28;20090;-88
2022/04/18 09:07:18;;;;;;;2.20;1.30;;;;;;;17.18;37.06;93422.72;4992793;28;20125;-87
2022/04/18 09:09:44;;;;;;;1.88;1.20;;;;;;;17.18;37.45;93417.25;5010553;28;20045;-88
2022/04/18 09:12:19;;;;;;;1.27;1.10;;;;;;;17.19;37.29;93419.47;4990806;28;20049;-87
2022/04/18 09:14:48;;;;;;;1.20;1.10;;;;;;;17.17;37.22;93413.03;4976025;28;20034;-88
2022/04/18 09:17:29;;;;;;;1.55;1.15;;;;;;;17.16;37.23;93414.28;4986682;28;20049;-88
2022/04/18 09:20:07;;;;;;;1.67;1.10;;;;;;;17.14;37.28;93412.78;5010933;28;20080;-87
2022/04/18 09:22:46;;;;;;;1.83;1.30;;;;;;;17.17;37.05;93402.09;5026656;28;20041;-88
2022/04/18 09:25:13;;;;;;;2.70;1.52;;;;;;;17.16;37.20;93406.81;4992642;28;20046;-88
2022/04/18 09:27:39;;;;;;;1.45;1.20;;;;;;;17.16;37.28;93409.56;4993944;28;20470;-89
2022/04/18 09:30:09;;;;;;;1.17;1.00;;;;;;;17.17;37.33;93405.59;4996417;28;20025;-89
2022/04/18 09:32:34;;;;;;;1.42;1.20;;;;;;;17.17;37.18;93397.38;5015461;28;20036;-88
2022/04/18 09:35:02;;;;;;;1.60;1.15;;;;;;;17.18;37.22;93398.13;5028902;28;20072;-88
2022/04/18 09:37:28;;;;;;;1.10;1.00;;;;;;;17.16;37.15;93389.69;5011886;28;20111;-88
2022/04/18 09:39:54;;;;;;;2.25;1.15;;;;;;;17.20;36.93;93395.63;5031103;28;20033;-88
2022/04/18 09:42:24;;;;;;;1.40;1.20;;;;;;;17.16;37.34;93390.44;5048093;28;20033;-87
2022/04/18 09:44:49;;;;;;;1.30;1.10;;;;;;;17.18;36.89;93392.66;5028823;28;20061;-87
2022/04/18 09:47:16;;;;;;;1.35;1.13;;;;;;;17.18;37.28;93392.66;5011094;28;20126;-86
2022/04/18 09:49:41;;;;;;;11.07;5.88;;;;;;;17.17;37.34;93393.91;5010618;28;20037;-88
2022/04/18 09:52:08;;;;;;;5.88;3.55;;;;;;;17.16;37.26;93387.69;4994957;28;20033;-88
2022/04/18 09:54:33;;;;;;;1.58;1.13;;;;;;;17.16;37.51;93390.44;5044582;28;20090;-87
2022/04/18 09:57:04;;;;;;;1.27;1.10;;;;;;;17.17;37.24;93389.19;5011386;28;20049;-87
2022/04/18 09:59:30;;;;;;;1.52;1.10;;;;;;;17.18;37.37;93382.47;4995190;28;20037;-88
2022/04/18 10:01:56;;;;;;;1.30;1.10;;;;;;;17.16;37.55;93387.69;5028284;28;20550;-87
2022/04/18 10:04:21;;;;;;;1.20;1.10;;;;;;;17.19;37.35;93385.97;5010805;28;20075;-87
2022/04/18 10:06:46;;;;;;;3.63;2.17;;;;;;;17.17;37.26;93374.78;5010896;28;20050;-88
2022/04/18 10:09:12;;;;;;;1.38;1.13;;;;;;;17.18;37.14;93384.47;5010554;28;20080;-88
2022/04/18 10:11:38;;;;;;;1.67;1.25;;;;;;;17.18;37.35;93381.75;5011905;28;20034;-87
2022/04/18 10:14:04;;;;;;;1.38;1.20;;;;;;;17.16;37.64;93384.22;5030631;28;20454;-88
2022/04/18 10:16:30;;;;;;;2.28;1.20;;;;;;;17.14;37.53;93382.00;5047357;28;20458;-87
2022/04/18 10:18:58;;;;;;;2.15;1.50;;;;;;;17.16;37.53;93373.31;5030844;28;20612;-88
2022/04/18 10:21:27;;;;;;;2.83;1.70;;;;;;;17.16;37.53;93373.31;5013584;28;20503;-88
2022/04/18 10:23:59;;;;;;;2.85;2.05;;;;;;;17.16;37.19;93367.84;5044322;28;20037;-88
2022/04/18 10:26:27;;;;;;;2.47;1.65;;;;;;;17.16;37.53;93365.09;5027812;28;20566;-88
2022/04/18 10:28:53;;;;;;;1.50;1.40;;;;;;;17.18;37.58;93363.38;5028606;28;20522;-88
2022/04/18 10:31:29;;;;;;;2.38;1.60;;;;;;;17.17;37.35;93361.88;5009813;28;20041;-88
2022/04/18 10:33:56;;;;;;;3.08;1.80;;;;;;;17.16;37.45;93360.38;5024215;28;20029;-87
2022/04/18 10:36:26;;;;;;;2.38;1.63;;;;;;;17.18;37.61;93365.34;5007233;28;20060;-87
2022/04/18 10:38:51;;;;;;;2.20;1.50;;;;;;;17.16;37.48;93362.38;5010817;28;20040;-88
2022/04/18 10:41:39;;;;;;;2.33;1.50;;;;;;;17.15;37.46;93356.16;5021742;28;20038;-88
2022/04/18 10:44:14;;;;;;;1.92;1.25;;;;;;;17.14;37.48;93357.41;5010554;28;20107;-88
2022/04/18 10:46:40;;;;;;;1.70;1.60;;;;;;;17.16;37.29;93362.38;5010692;28;20048;-89
2022/04/18 10:49:16;;;;;;;2.22;1.70;;;;;;;17.17;37.33;93356.41;5017469;28;20045;-89
2022/04/18 10:51:43;;;;;;;2.95;2.00;;;;;;;17.14;37.49;93344.50;4994247;28;20141;-89
2022/04/18 10:54:10;;;;;;;2.88;1.65;;;;;;;17.14;37.43;93352.69;5025141;28;20060;-89
2022/04/18 10:56:58;;;;;;;3.00;1.80;;;;;;;17.14;37.61;93349.22;5027364;28;20107;-89
2022/04/18 10:59:30;;;;;;;2.25;1.70;;;;;;;17.13;37.41;93351.22;5033769;28;20033;-89
2022/04/18 11:01:57;;;;;;;3.58;2.05;;;;;;;17.14;37.39;93349.22;5025628;28;20029;-88
2022/04/18 11:04:28;;;;;;;2.72;1.75;;;;;;;17.14;36.95;93349.22;4993887;28;20034;-88
2022/04/18 11:06:58;;;;;;;2.83;1.77;;;;;;;17.12;37.49;93338.06;5010323;28;20033;-87
2022/04/18 11:09:24;;;;;;;2.08;1.52;;;;;;;17.13;37.36;93334.81;5009742;28;20044;-88
2022/04/18 11:11:53;;;;;;;2.13;1.77;;;;;;;17.14;37.16;93343.75;5028963;28;20028;-88
2022/04/18 11:14:19;;;;;;;2.10;1.67;;;;;;;17.14;37.54;93339.03;5010308;28;20059;-88
2022/04/18 11:16:44;;;;;;;2.55;1.88;;;;;;;17.15;37.26;93345.25;5009964;28;20065;-88
2022/04/18 11:19:14;;;;;;;3.05;2.13;;;;;;;17.12;37.30;93336.06;5027230;28;20061;-88
2022/04/18 11:21:55;;;;;;;2.75;1.90;;;;;;;17.14;37.09;93343.75;5017435;28;20128;-88
2022/04/18 11:24:52;;;;;;;16.52;10.10;;;;;;;17.13;37.09;93345.00;5029269;28;20029;-88
2022/04/18 11:27:21;;;;;;;4.57;2.80;;;;;;;17.15;37.20;93342.50;5045374;28;20037;-88
2022/04/18 11:29:51;;;;;;;2.17;1.90;;;;;;;17.13;37.22;93343.00;5028842;28;20037;-89
2022/04/18 11:32:18;;;;;;;3.72;2.65;;;;;;;17.12;36.92;93338.06;5024940;28;20034;-88
2022/04/18 11:34:45;;;;;;;3.65;2.60;;;;;;;17.12;37.21;93338.81;4994064;28;20366;-89
2022/04/18 11:37:12;;;;;;;2.67;1.80;;;;;;;17.13;37.00;93339.53;4992748;28;20333;-87
2022/04/18 11:39:50;;;;;;;2.33;2.03;;;;;;;17.14;37.09;93336.31;5028107;28;20037;-88
2022/04/18 11:42:18;;;;;;;3.17;2.10;;;;;;;17.14;37.46;93338.28;5029168;28;20542;-88
2022/04/18 11:44:44;;;;;;;3.42;2.13;;;;;;;17.13;37.67;93331.34;5029746;28;20037;-88
2022/04/18 11:47:11;;;;;;;2.47;1.90;;;;;;;17.17;37.11;93328.34;5045342;28;20029;-87
2022/04/18 11:49:38;;;;;;;2.60;2.13;;;;;;;17.17;37.14;93328.34;5013092;28;20048;-87